Portada
METAR-TAF:

METAR-TAF

Aeroports :

Montpeller, França

latitud: 43-35N, longitud: 003-58E, altitud: 5 m

Observació

L'informe es va fer fa 34 minuts, a les 15:00 UTC
Vent 6 kt del Oest/Nord-Oest, variant entre Oest i Nord/Nord-Oest
Temperatura 11°C
Humitat 43%
Pressió 1022 hPa
Visibilitat 10 km o més
sense núvols per sota de 1500 mi sense presència de cumulonimbus.

METAR: LFMT 101500Z AUTO 30006KT 280V340 CAVOK 11/M01 Q1022

Hora: 16:34 (15:34 UTC)

Pronòstic

L'informe es va fer fa 13 hores i 34 minuts, a les 02:00 UTC
Pronòstic vàlid del 10 a les 03 UTC al 11 a les 03 UTC
Vent 15 kt del Nord/Nord-Oest amb ràfegues de 25 kt
Visibilitat 10 km o més
sense núvols per sota de 1500 mi sense presència de cumulonimbus.
Evolucionant progressivament
l' 10 a les 06 UTC al 10 a les 08 UTC
Vent 12 kt del Nord-Oest
Evolucionant progressivament
l' 10 a les 16 UTC al 10 a les 18 UTC
Vent 2 kt amb direcció variable

TAF: LFMT 100200Z 1003/1103 33015G25KT CAVOK BECMG 1006/1008 32012KT BECMG 1016/1018 VRB02KT

Observacions i pronòstics meteorològics de més de 4000 aeroports (METAR i TAF).

Les estacions disponibles són els punts grocs i vermells al mapa.

Posi el ratolí al punt desitjat per veure el nom de l'estació.

Feu clic per veure les observacions i els pronòstics meteorològics.

Per canviar el mapa: feu clic els botons verds amb una creu de color negre per apropar; al botó verd amb un guió per allunyar la imatge; o en les fletxes verdes per a mapes adjacents.


METAR-TAF: